Time;durP1;ratioP1;P1;durP2;ratioP2;P2;SDS_P1;SDS_P2;PMS_P1;PMS_P2;Temp;Humidity;BMP_temperature;BMP_pressure;BME280_temperature;BME280_humidity;BME280_pressure;Samples;Min_cycle;Max_cycle;Signal;HPM_P1;HPM_P2
2021/05/23 00:01:05;;;;;;;4.70;0.83;;;;;;;9.37;78.46;95875.00;5057359;28;20032;-87
2021/05/23 00:03:31;;;;;;;2.17;0.70;;;;;;;9.31;77.86;95876.44;5058874;28;20086;-86
2021/05/23 00:05:57;;;;;;;2.93;0.70;;;;;;;9.33;77.28;95857.94;5058118;28;20060;-87
2021/05/23 00:08:24;;;;;;;1.47;0.50;;;;;;;9.25;78.74;95861.34;5077000;28;20052;-88
2021/05/23 00:10:59;;;;;;;2.03;0.73;;;;;;;9.27;77.96;95855.94;5067239;28;20032;-87
2021/05/23 00:13:27;;;;;;;2.47;0.97;;;;;;;9.29;77.69;95859.22;5065694;28;20111;-87
2021/05/23 00:15:56;;;;;;;6.73;1.83;;;;;;;9.23;77.84;95860.69;5076880;28;20059;-86
2021/05/23 00:18:23;;;;;;;4.63;1.90;;;;;;;9.25;79.34;95865.78;5062391;28;20036;-86
2021/05/23 00:20:49;;;;;;;3.20;1.10;;;;;;;9.04;79.41;95863.59;5062280;28;20024;-86
2021/05/23 00:23:15;;;;;;;3.47;1.40;;;;;;;8.82;78.72;95857.09;5058123;28;20036;-86
2021/05/23 00:25:41;;;;;;;3.17;0.97;;;;;;;8.77;79.91;95849.72;5057782;28;20025;-86
2021/05/23 00:28:09;;;;;;;3.33;1.03;;;;;;;8.79;80.58;95849.56;5062137;28;20033;-86
2021/05/23 00:30:35;;;;;;;2.63;1.00;;;;;;;8.66;80.11;95850.81;5064007;28;20032;-86
2021/05/23 00:33:02;;;;;;;4.60;1.10;;;;;;;8.61;81.46;95836.53;5058777;28;20557;-86
2021/05/23 00:35:30;;;;;;;4.13;1.47;;;;;;;8.67;80.98;95846.38;5056528;28;20032;-86
2021/05/23 00:37:56;;;;;;;1.53;0.60;;;;;;;8.61;81.35;95849.63;5065918;28;20036;-87
2021/05/23 00:40:22;;;;;;;1.97;0.83;;;;;;;8.56;81.81;95855.34;5057895;28;20032;-87
2021/05/23 00:42:48;;;;;;;3.53;1.07;;;;;;;8.52;82.01;95859.28;5073377;28;20044;-87
2021/05/23 00:45:15;;;;;;;6.47;1.17;;;;;;;8.58;82.47;95858.63;5061932;28;20044;-87
2021/05/23 00:47:46;;;;;;;2.43;1.17;;;;;;;8.55;82.06;95853.72;5047079;28;20032;-87
2021/05/23 00:50:17;;;;;;;2.50;1.07;;;;;;;8.60;82.58;95855.88;5059898;28;20042;-87
2021/05/23 00:52:43;;;;;;;2.93;1.30;;;;;;;8.50;83.25;95855.97;5058660;28;20040;-87
2021/05/23 00:55:09;;;;;;;3.60;1.20;;;;;;;8.42;82.49;95855.94;5068735;28;20024;-87
2021/05/23 00:57:35;;;;;;;4.07;1.47;;;;;;;8.44;83.31;95856.59;5056981;28;20458;-87
2021/05/23 01:00:04;;;;;;;4.07;1.70;;;;;;;8.39;83.53;95846.59;5056496;28;20032;-87
2021/05/23 01:02:43;;;;;;;4.87;1.33;;;;;;;8.44;83.51;95851.34;5054865;28;20043;-87
2021/05/23 01:05:13;;;;;;;3.27;1.33;;;;;;;8.39;83.73;95849.19;5083646;28;20036;-87
2021/05/23 01:07:47;;;;;;;5.17;1.40;;;;;;;8.43;84.15;95850.53;5059721;28;20020;-87
2021/05/23 01:10:18;;;;;;;3.80;1.30;;;;;;;8.42;83.84;95853.31;5063317;28;20055;-87
2021/05/23 01:13:20;;;;;;;3.77;1.30;;;;;;;8.39;84.05;95857.06;5080067;28;20032;-86
2021/05/23 01:15:49;;;;;;;3.40;1.03;;;;;;;8.50;83.73;95853.34;5054537;28;20040;-87
2021/05/23 01:18:37;;;;;;;4.47;2.13;;;;;;;8.43;84.92;95852.34;5072437;28;20032;-87
2021/05/23 01:21:06;;;;;;;3.10;0.73;;;;;;;8.44;84.15;95851.34;5054009;28;20071;-87
2021/05/23 01:23:39;;;;;;;4.67;1.70;;;;;;;8.33;84.40;95851.59;5051184;28;20041;-87
2021/05/23 01:26:10;;;;;;;5.95;1.25;;;;;;;8.42;85.12;95848.91;5050831;28;20297;-87
2021/05/23 01:28:59;;;;;;;2.73;1.00;;;;;;;8.45;84.98;95855.59;5054454;28;20452;-86
2021/05/23 01:31:30;;;;;;;3.07;1.20;;;;;;;8.36;84.68;95864.38;5079672;28;20044;-86
2021/05/23 01:33:57;;;;;;;2.30;0.83;;;;;;;8.46;84.09;95870.38;5071460;28;20056;-86
2021/05/23 01:36:30;;;;;;;3.10;1.07;;;;;;;8.45;84.54;95872.16;5062079;28;20030;-87
2021/05/23 01:38:58;;;;;;;3.70;1.00;;;;;;;8.45;83.47;95876.56;5051249;28;20043;-86
2021/05/23 01:41:41;;;;;;;4.30;0.80;;;;;;;8.47;83.71;95880.69;5050401;28;20048;-87
2021/05/23 01:44:07;;;;;;;1.70;0.70;;;;;;;8.45;84.27;95881.81;5074002;28;20045;-87
2021/05/23 01:46:34;;;;;;;3.03;0.83;;;;;;;8.41;85.30;95888.34;5069474;28;20043;-86
2021/05/23 01:49:00;;;;;;;4.40;1.00;;;;;;;8.37;85.45;95903.50;5079901;28;20506;-87
2021/05/23 01:51:39;;;;;;;3.43;0.90;;;;;;;8.43;85.66;95908.19;5071481;28;20024;-87
2021/05/23 01:54:05;;;;;;;6.87;1.53;;;;;;;8.44;87.33;95903.75;5085116;28;20477;-86
2021/05/23 01:56:31;;;;;;;3.40;1.20;;;;;;;8.43;87.24;95907.34;5081946;28;20026;-85
2021/05/23 01:58:56;;;;;;;4.57;1.03;;;;;;;8.36;88.12;95912.38;5068401;28;20042;-86
2021/05/23 02:01:25;;;;;;;1.77;0.90;;;;;;;8.31;88.28;95909.38;5066716;28;20490;-86
2021/05/23 02:03:56;;;;;;;3.40;1.07;;;;;;;8.33;88.40;95911.84;5072223;28;20544;-86
2021/05/23 02:06:22;;;;;;;4.60;1.00;;;;;;;8.30;88.20;95910.34;5070217;28;20111;-86
2021/05/23 02:08:48;;;;;;;2.80;1.10;;;;;;;8.26;88.93;95907.22;5073854;28;20147;-87
2021/05/23 02:11:14;;;;;;;2.10;1.00;;;;;;;8.29;89.07;95916.56;5066211;28;20490;-87
2021/05/23 02:13:40;;;;;;;3.30;1.00;;;;;;;8.19;89.12;95915.84;5084719;28;20501;-87
2021/05/23 02:16:07;;;;;;;3.83;0.90;;;;;;;8.20;90.03;95917.47;5077874;28;20090;-87
2021/05/23 02:18:34;;;;;;;3.67;0.93;;;;;;;8.21;90.69;95925.16;5052897;28;20051;-87
2021/05/23 02:21:03;;;;;;;1.60;1.20;;;;;;;8.17;90.32;95921.22;5060178;28;20028;-87
2021/05/23 02:23:30;;;;;;;2.70;0.97;;;;;;;8.19;90.68;95923.69;5062640;28;20081;-87
2021/05/23 02:25:56;;;;;;;3.00;1.20;;;;;;;8.20;90.82;95923.53;5083004;28;20028;-86
2021/05/23 02:28:22;;;;;;;3.63;1.20;;;;;;;8.17;90.76;95929.06;5076003;28;20063;-86
2021/05/23 02:30:56;;;;;;;2.53;1.03;;;;;;;8.10;90.54;95935.91;5063152;28;20032;-86
2021/05/23 02:33:27;;;;;;;3.27;1.10;;;;;;;8.10;90.49;95933.28;5083032;28;20048;-85
2021/05/23 02:35:55;;;;;;;2.53;1.13;;;;;;;8.10;91.15;95935.91;5063487;28;20036;-86
2021/05/23 02:38:29;;;;;;;3.10;1.30;;;;;;;8.06;91.41;95921.47;5070142;28;20020;-86
2021/05/23 02:40:54;;;;;;;4.70;1.07;;;;;;;8.04;91.44;95924.22;5062823;28;20041;-86
2021/05/23 02:43:23;;;;;;;3.83;1.20;;;;;;;7.96;91.16;95923.34;5055864;28;20958;-86
2021/05/23 02:45:50;;;;;;;3.87;1.03;;;;;;;8.02;91.33;95920.13;5078813;28;20576;-85
2021/05/23 02:48:17;;;;;;;2.70;0.80;;;;;;;8.02;90.92;95923.56;5058755;28;20020;-86
2021/05/23 02:50:52;;;;;;;2.63;1.13;;;;;;;7.89;91.75;95919.69;5072855;28;20060;-86
2021/05/23 02:53:18;;;;;;;2.33;0.97;;;;;;;7.90;91.65;95923.94;5058595;28;20127;-86
2021/05/23 02:55:46;;;;;;;2.27;0.93;;;;;;;7.98;92.14;95929.22;5058968;28;20055;-86
2021/05/23 02:58:14;;;;;;;2.40;1.20;;;;;;;7.98;91.80;95918.75;5084405;28;20066;-86
2021/05/23 03:00:48;;;;;;;2.43;1.17;;;;;;;7.94;91.52;95917.41;5066357;28;20694;-86
2021/05/23 03:03:15;;;;;;;2.17;1.00;;;;;;;7.95;91.67;95919.09;5059806;28;20126;-87
2021/05/23 03:05:41;;;;;;;6.37;1.60;;;;;;;7.98;91.29;95921.38;5054214;28;20044;-86
2021/05/23 03:08:07;;;;;;;3.47;0.90;;;;;;;8.03;90.97;95922.59;5088448;28;20035;-86
2021/05/23 03:10:37;;;;;;;2.57;1.00;;;;;;;7.94;91.50;95918.25;5062649;28;20016;-86
2021/05/23 03:13:06;;;;;;;6.13;0.90;;;;;;;7.95;90.90;95933.00;5074680;28;20033;-86
2021/05/23 03:15:33;;;;;;;2.50;0.90;;;;;;;7.98;90.76;95940.56;5071843;28;20016;-86
2021/05/23 03:17:59;;;;;;;1.43;0.60;;;;;;;7.88;91.42;95939.81;5055591;28;20055;-86
2021/05/23 03:20:27;;;;;;;2.10;0.90;;;;;;;7.84;91.67;95940.25;5059671;28;20074;-86
2021/05/23 03:22:55;;;;;;;2.60;0.80;;;;;;;7.89;91.75;95945.88;5061591;28;20040;-87
2021/05/23 03:25:23;;;;;;;2.47;0.80;;;;;;;7.90;92.67;95945.69;5065810;28;20111;-87
2021/05/23 03:27:49;;;;;;;1.10;0.80;;;;;;;7.91;92.63;95954.38;5064731;28;20028;-87
2021/05/23 03:30:23;;;;;;;2.03;0.80;;;;;;;7.97;93.21;95959.84;5074292;28;20078;-87
2021/05/23 03:32:50;;;;;;;3.27;0.90;;;;;;;7.93;93.25;95952.44;5060696;28;20036;-87
2021/05/23 03:35:16;;;;;;;1.90;0.97;;;;;;;7.93;93.05;95960.28;5070995;28;20048;-87
2021/05/23 03:37:43;;;;;;;2.70;1.10;;;;;;;7.83;92.87;95967.41;5082591;28;20325;-87
2021/05/23 03:40:11;;;;;;;1.83;1.03;;;;;;;7.88;93.38;95971.22;5065512;28;20115;-86
2021/05/23 03:42:38;;;;;;;4.70;1.30;;;;;;;7.88;93.49;95978.22;5056288;28;20129;-86
2021/05/23 03:45:05;;;;;;;3.57;1.10;;;;;;;7.85;93.92;95991.66;5060381;28;20024;-85
2021/05/23 03:47:31;;;;;;;6.10;1.53;;;;;;;7.84;95.00;96006.50;5052450;28;20571;-85
2021/05/23 03:49:57;;;;;;;3.83;1.20;;;;;;;7.70;95.25;96026.16;5064167;28;20036;-84
2021/05/23 03:52:23;;;;;;;1.90;0.60;;;;;;;7.18;92.25;96031.09;5092239;28;20211;-84
2021/05/23 03:54:48;;;;;;;0.73;0.30;;;;;;;6.97;91.79;96033.06;5071256;28;20045;-85
2021/05/23 03:57:14;;;;;;;1.57;0.30;;;;;;;6.91;91.28;96034.47;5088673;28;20063;-85
2021/05/23 03:59:40;;;;;;;2.07;0.50;;;;;;;6.92;92.12;96045.75;5089679;28;20033;-86
2021/05/23 04:02:06;;;;;;;0.50;0.20;;;;;;;6.89;92.33;96046.84;5071916;28;20036;-86
2021/05/23 04:07:34;;;;;;;2.33;0.60;;;;;;;6.92;90.90;96043.97;5069584;28;20032;-84
2021/05/23 04:09:59;;;;;;;1.20;0.47;;;;;;;7.00;90.54;96040.63;5065660;28;20115;-85
2021/05/23 04:12:39;;;;;;;1.37;0.40;;;;;;;6.93;90.82;96047.41;5070900;28;20222;-86
2021/05/23 04:15:09;;;;;;;3.37;0.47;;;;;;;6.85;90.53;96046.31;5066559;28;20047;-85
2021/05/23 04:17:35;;;;;;;2.03;0.40;;;;;;;6.91;91.29;96047.56;5085651;28;20115;-85
2021/05/23 04:20:04;;;;;;;1.57;0.40;;;;;;;6.92;90.97;96048.38;5087074;28;20031;-84
2021/05/23 04:22:29;;;;;;;0.97;0.50;;;;;;;6.91;90.63;96058.00;5059689;28;20025;-84
2021/05/23 04:24:55;;;;;;;1.60;0.37;;;;;;;6.96;90.87;96049.72;5065928;28;20846;-84
2021/05/23 04:27:22;;;;;;;1.70;0.40;;;;;;;6.97;91.83;96048.75;5073567;28;20055;-86
2021/05/23 04:29:47;;;;;;;1.07;0.20;;;;;;;6.93;91.19;96052.63;5065078;28;20040;-85
2021/05/23 04:32:14;;;;;;;2.57;0.37;;;;;;;6.96;91.35;96052.34;5076051;28;20131;-85
2021/05/23 04:34:43;;;;;;;1.63;0.40;;;;;;;6.87;91.60;96059.22;5065620;28;20026;-85
2021/05/23 04:37:10;;;;;;;1.40;0.50;;;;;;;7.01;91.35;96061.44;5058614;28;20062;-86
2021/05/23 04:39:36;;;;;;;2.47;0.60;;;;;;;6.93;91.60;96070.94;5061962;28;20748;-85
2021/05/23 04:42:02;;;;;;;1.13;0.40;;;;;;;6.94;91.75;96076.03;5057530;28;20040;-85
2021/05/23 04:44:28;;;;;;;1.13;0.33;;;;;;;7.01;91.52;96068.44;5050660;28;20025;-86
2021/05/23 04:46:55;;;;;;;3.23;0.50;;;;;;;7.15;91.84;96073.22;5079367;28;20072;-86
2021/05/23 04:49:22;;;;;;;1.03;0.50;;;;;;;7.14;91.33;96071.53;5049820;28;20031;-86
2021/05/23 04:51:49;;;;;;;2.07;0.80;;;;;;;7.22;91.92;96074.28;5081197;28;20032;-86
2021/05/23 04:54:15;;;;;;;2.30;0.47;;;;;;;7.17;91.64;96075.69;5056929;28;20468;-86
2021/05/23 04:56:40;;;;;;;2.00;0.43;;;;;;;7.18;92.35;96080.78;5055407;28;20024;-86
2021/05/23 04:59:11;;;;;;;1.50;0.60;;;;;;;7.14;92.42;96074.16;5057674;28;20383;-86
2021/05/23 05:01:39;;;;;;;1.17;0.40;;;;;;;7.26;92.68;96080.06;5065419;28;20029;-86
2021/05/23 05:04:07;;;;;;;2.03;0.60;;;;;;;7.35;92.45;96096.72;5074327;28;20111;-85
2021/05/23 05:06:33;;;;;;;2.40;0.60;;;;;;;7.44;92.61;96106.28;5083306;28;20101;-86
2021/05/23 05:08:58;;;;;;;2.73;0.53;;;;;;;7.37;92.73;96113.88;5056125;28;20056;-87
2021/05/23 05:11:24;;;;;;;2.73;0.60;;;;;;;7.22;93.09;96116.16;5069223;28;20024;-87
2021/05/23 05:14:11;;;;;;;1.40;0.40;;;;;;;7.28;93.44;96110.34;5057227;28;20032;-87
2021/05/23 05:16:50;;;;;;;1.13;0.50;;;;;;;7.45;93.99;96115.81;5088963;28;20051;-87
2021/05/23 05:19:19;;;;;;;1.00;0.43;;;;;;;7.40;93.69;96123.25;5085152;28;20040;-87
2021/05/23 05:21:45;;;;;;;2.47;0.50;;;;;;;7.41;93.25;96127.50;5060060;28;20044;-87
2021/05/23 05:24:11;;;;;;;2.33;0.40;;;;;;;7.36;93.47;96138.41;5068029;28;20051;-87
2021/05/23 05:26:38;;;;;;;1.53;0.80;;;;;;;7.29;93.34;96138.16;5071178;28;20036;-87
2021/05/23 05:29:04;;;;;;;1.40;0.53;;;;;;;7.43;94.10;96141.28;5084276;28;20113;-87
2021/05/23 05:31:30;;;;;;;1.23;0.40;;;;;;;7.44;92.96;96135.06;5062230;28;20517;-87
2021/05/23 05:33:56;;;;;;;0.77;0.33;;;;;;;7.47;94.00;96137.41;5082670;28;20028;-88
2021/05/23 05:36:22;;;;;;;1.63;0.60;;;;;;;7.54;93.50;96141.09;5079199;28;20028;-87
2021/05/23 05:38:49;;;;;;;1.50;0.50;;;;;;;7.61;92.98;96150.03;5058571;28;20044;-87
2021/05/23 05:41:19;;;;;;;1.47;0.63;;;;;;;7.62;93.58;96148.25;5065812;28;20037;-87
2021/05/23 05:43:46;;;;;;;0.90;0.50;;;;;;;7.66;93.60;96153.06;5059873;28;20032;-86
2021/05/23 05:46:14;;;;;;;3.37;0.87;;;;;;;7.77;93.15;96159.91;5084275;28;20033;-88
2021/05/23 05:48:40;;;;;;;1.27;0.40;;;;;;;7.76;93.26;96156.47;5062588;28;20055;-87
2021/05/23 05:51:06;;;;;;;1.53;0.60;;;;;;;7.75;92.50;96154.00;5061874;28;20548;-87
2021/05/23 05:53:34;;;;;;;3.03;0.60;;;;;;;7.91;92.44;96161.22;5079104;28;20037;-87
2021/05/23 05:56:01;;;;;;;2.50;0.60;;;;;;;7.85;92.18;96161.81;5077154;28;20024;-88
2021/05/23 05:58:28;;;;;;;1.13;0.50;;;;;;;8.02;92.75;96159.25;5053924;28;20033;-87
2021/05/23 06:00:54;;;;;;;5.17;0.80;;;;;;;8.13;91.94;96167.88;5070124;28;20020;-86
2021/05/23 06:03:20;;;;;;;2.80;0.83;;;;;;;8.20;92.26;96179.44;5070495;28;20025;-87
2021/05/23 06:05:45;;;;;;;3.90;0.80;;;;;;;8.25;91.71;96177.22;5062310;28;20029;-88
2021/05/23 06:08:11;;;;;;;1.30;0.60;;;;;;;8.14;92.01;96175.59;5079653;28;20036;-87
2021/05/23 06:10:40;;;;;;;1.17;0.60;;;;;;;8.30;91.62;96168.91;5066247;28;20083;-88
2021/05/23 06:13:06;;;;;;;2.20;0.80;;;;;;;8.43;91.51;96175.47;5061420;28;20183;-88
2021/05/23 06:15:32;;;;;;;1.83;0.43;;;;;;;8.45;90.77;96172.69;5055587;28;20028;-87
2021/05/23 06:17:59;;;;;;;2.47;0.60;;;;;;;8.59;90.88;96171.38;5058781;28;20036;-88
2021/05/23 06:20:25;;;;;;;0.70;0.50;;;;;;;8.55;90.24;96178.72;5060452;28;20013;-88
2021/05/23 06:22:50;;;;;;;2.20;0.60;;;;;;;8.73;90.19;96183.97;5061381;28;20136;-88
2021/05/23 06:25:16;;;;;;;1.43;0.53;;;;;;;8.68;89.84;96191.44;5079280;28;20021;-88
2021/05/23 06:27:42;;;;;;;1.30;0.60;;;;;;;8.78;89.92;96199.25;5083009;28;20028;-88
2021/05/23 06:30:08;;;;;;;2.07;0.70;;;;;;;8.71;90.42;96194.59;5068312;28;20052;-88
2021/05/23 06:32:34;;;;;;;0.73;0.40;;;;;;;8.94;89.80;96205.47;5063957;28;20120;-87
2021/05/23 06:35:00;;;;;;;2.97;0.80;;;;;;;8.94;89.86;96202.84;5060641;28;20086;-87
2021/05/23 06:37:26;;;;;;;2.83;0.70;;;;;;;9.17;89.25;96205.03;5073215;28;20028;-87
2021/05/23 06:39:51;;;;;;;1.73;0.70;;;;;;;9.13;87.88;96212.38;5058346;28;20054;-87
2021/05/23 06:42:18;;;;;;;1.57;0.80;;;;;;;9.38;87.20;96207.31;5060943;28;20040;-88
2021/05/23 06:44:48;;;;;;;3.50;1.07;;;;;;;9.39;86.13;96207.19;5063997;28;20028;-78
2021/05/23 06:47:29;;;;;;;4.30;1.63;;;;;;;9.56;87.11;96216.00;5055110;28;20033;-78
2021/05/23 06:49:58;;;;;;;1.23;0.63;;;;;;;9.90;83.43;96213.41;5057320;28;20475;-77
2021/05/23 06:52:26;;;;;;;2.83;0.60;;;;;;;10.13;83.81;96223.41;5046864;28;20565;-78
2021/05/23 06:54:52;;;;;;;2.17;0.80;;;;;;;9.70;85.16;96227.75;5060402;28;20119;-77
2021/05/23 06:57:18;;;;;;;1.70;0.70;;;;;;;9.43;86.15;96220.81;5069148;28;20032;-77
2021/05/23 06:59:43;;;;;;;2.57;0.80;;;;;;;9.35;86.83;96229.44;5055609;28;20032;-76
2021/05/23 07:02:09;;;;;;;4.23;1.00;;;;;;;9.28;87.92;96230.19;5055761;28;20059;-77
2021/05/23 07:04:35;;;;;;;14.63;8.03;;;;;;;9.08;87.36;96232.97;5056304;28;20059;-77
2021/05/23 07:07:01;;;;;;;3.07;0.90;;;;;;;9.16;87.16;96233.06;5061772;28;20037;-78
2021/05/23 07:09:46;;;;;;;4.10;1.10;;;;;;;9.41;87.10;96225.38;5055001;28;20043;-77
2021/05/23 07:12:11;;;;;;;1.97;0.90;;;;;;;10.63;83.85;96209.50;5059149;28;20036;-77
2021/05/23 07:14:37;;;;;;;3.13;0.80;;;;;;;11.06;79.96;96200.53;5054958;28;20013;-78
2021/05/23 07:17:03;;;;;;;1.53;0.70;;;;;;;11.79;80.20;96201.50;5069554;28;20036;-78
2021/05/23 07:19:29;;;;;;;2.87;0.70;;;;;;;10.99;76.69;96215.31;5070278;28;21025;-78
2021/05/23 07:21:55;;;;;;;5.00;0.70;;;;;;;10.92;78.53;96216.97;5046466;28;20445;-77
2021/05/23 07:24:21;;;;;;;1.43;0.73;;;;;;;11.66;76.49;96219.63;5062130;28;20032;-77
2021/05/23 07:26:47;;;;;;;1.53;0.50;;;;;;;11.32;76.47;96216.19;5058016;28;20402;-77
2021/05/23 07:29:12;;;;;;;3.53;0.70;;;;;;;11.33;76.64;96227.53;5052424;28;20488;-77
2021/05/23 07:31:38;;;;;;;3.13;0.50;;;;;;;11.14;76.52;96227.88;5063741;28;20036;-76
2021/05/23 07:34:04;;;;;;;6.40;1.03;;;;;;;11.99;74.29;96220.44;5047673;28;20029;-76
2021/05/23 07:36:33;;;;;;;2.73;1.00;;;;;;;12.05;75.29;96205.75;5071230;28;20541;-76
2021/05/23 07:38:59;;;;;;;2.10;0.63;;;;;;;12.52;72.23;96218.13;5059591;28;20032;-77
2021/05/23 07:41:25;;;;;;;4.17;0.97;;;;;;;11.70;72.37;96218.28;5061532;28;20503;-76
2021/05/23 07:43:51;;;;;;;0.97;0.40;;;;;;;11.92;72.35;96227.38;5081342;28;20397;-77
2021/05/23 07:46:17;;;;;;;2.13;0.70;;;;;;;11.73;75.49;96231.97;5074521;28;20029;-77
2021/05/23 07:48:42;;;;;;;2.53;1.20;;;;;;;11.54;74.80;96235.78;5060550;28;20036;-77
2021/05/23 07:51:08;;;;;;;1.43;0.70;;;;;;;10.92;76.32;96242.44;5044585;28;20040;-78
2021/05/23 07:53:34;;;;;;;3.23;1.27;;;;;;;10.59;75.33;96245.78;5056895;28;20027;-77
2021/05/23 07:56:04;;;;;;;5.93;1.57;;;;;;;10.52;76.33;96249.22;5074136;28;20123;-77
2021/05/23 07:58:38;;;;;;;3.57;1.13;;;;;;;10.47;77.01;96249.72;5051297;28;20115;-78
2021/05/23 08:01:13;;;;;;;6.40;1.45;;;;;;;10.60;78.47;96257.97;5058459;28;20033;-78
2021/05/23 08:03:41;;;;;;;15.97;11.93;;;;;;;10.96;77.28;96257.75;5059206;28;20111;-77
2021/05/23 08:06:12;;;;;;;6.30;2.70;;;;;;;11.50;75.28;96263.44;5054608;28;20120;-76
2021/05/23 08:08:37;;;;;;;3.73;1.93;;;;;;;11.34;75.02;96250.25;5053681;28;20024;-76
2021/05/23 08:11:15;;;;;;;2.33;1.20;;;;;;;13.05;66.76;96245.56;5066768;28;20035;-76
2021/05/23 08:13:41;;;;;;;2.13;0.70;;;;;;;13.32;66.05;96241.63;5051945;28;20036;-76
2021/05/23 08:16:08;;;;;;;3.20;1.43;;;;;;;13.12;65.91;96243.88;5050061;28;20024;-76
2021/05/23 08:18:34;;;;;;;3.37;0.60;;;;;;;13.52;64.49;96239.34;5073644;28;20089;-76
2021/05/23 08:21:01;;;;;;;3.53;0.93;;;;;;;14.78;59.15;96241.19;5053469;28;20029;-76
2021/05/23 08:23:29;;;;;;;2.43;0.80;;;;;;;13.70;63.64;96245.13;5067575;28;20024;-77
2021/05/23 08:25:56;;;;;;;2.70;1.03;;;;;;;13.41;64.00;96251.13;5047105;28;20021;-76
2021/05/23 08:28:22;;;;;;;2.80;0.80;;;;;;;14.17;63.72;96251.94;5049016;28;20464;-77
2021/05/23 08:30:48;;;;;;;2.53;0.60;;;;;;;13.32;63.73;96249.56;5052010;28;20032;-77
2021/05/23 08:33:14;;;;;;;2.50;0.80;;;;;;;12.58;67.77;96257.84;5050312;28;20498;-76
2021/05/23 08:35:42;;;;;;;3.53;0.73;;;;;;;12.83;68.50;96258.53;5052555;28;20059;-76
2021/05/23 08:38:08;;;;;;;1.60;0.53;;;;;;;14.99;61.64;96253.66;5054112;28;20122;-76
2021/05/23 08:40:36;;;;;;;0.93;0.50;;;;;;;15.31;60.51;96260.31;5052128;28;20025;-76
2021/05/23 08:43:04;;;;;;;2.87;0.83;;;;;;;16.06;56.12;96247.53;5058227;28;20482;-76
2021/05/23 08:45:30;;;;;;;1.60;0.50;;;;;;;15.46;56.43;96261.09;5044180;28;20020;-76
2021/05/23 08:47:56;;;;;;;4.73;1.33;;;;;;;14.38;57.00;96273.22;5045432;28;20037;-76
2021/05/23 08:50:24;;;;;;;3.97;1.67;;;;;;;13.81;58.63;96268.47;5049661;28;20024;-77
2021/05/23 08:52:58;;;;;;;4.20;0.90;;;;;;;13.83;59.24;96271.75;5070509;28;20040;-76
2021/05/23 08:55:24;;;;;;;2.00;0.73;;;;;;;13.87;61.26;96280.16;5047422;28;20021;-77
2021/05/23 08:57:51;;;;;;;3.30;1.27;;;;;;;13.05;61.17;96287.81;5067161;28;20112;-77
2021/05/23 09:00:18;;;;;;;3.27;1.00;;;;;;;12.55;62.60;96297.75;5051911;28;20167;-76
2021/05/23 09:03:04;;;;;;;4.57;0.93;;;;;;;11.77;66.27;96328.16;5067408;28;20021;-76
2021/05/23 09:05:32;;;;;;;2.03;0.60;;;;;;;9.39;74.61;96376.97;5075682;28;20354;-75
2021/05/23 09:08:06;;;;;;;3.37;0.70;;;;;;;8.47;78.41;96385.66;5053187;28;20032;-75
2021/05/23 09:10:34;;;;;;;3.13;0.60;;;;;;;8.25;82.85;96394.66;5051337;28;20029;-75
2021/05/23 09:13:01;;;;;;;2.47;0.60;;;;;;;8.03;81.01;96393.97;5048100;28;20032;-75
2021/05/23 09:15:27;;;;;;;1.40;0.50;;;;;;;7.74;80.99;96393.16;5049407;28;20111;-76
2021/05/23 09:18:16;;;;;;;2.53;0.40;;;;;;;7.74;83.00;96404.47;5051313;28;20759;-75
2021/05/23 09:20:43;;;;;;;17.60;8.60;;;;;;;7.70;84.11;96408.31;5061491;28;20562;-76
2021/05/23 09:23:10;;;;;;;4.50;0.90;;;;;;;7.75;83.00;96405.31;5053081;28;20047;-76
2021/05/23 09:25:37;;;;;;;4.23;0.93;;;;;;;7.82;84.18;96405.59;5050288;28;20024;-76
2021/05/23 09:28:04;;;;;;;2.63;1.00;;;;;;;7.71;82.09;96396.91;5047512;28;20025;-76
2021/05/23 09:30:33;;;;;;;5.97;2.03;;;;;;;7.99;82.16;96402.25;5066753;28;20081;-75
2021/05/23 09:33:01;;;;;;;5.40;2.13;;;;;;;7.69;79.11;96364.78;5066940;28;20028;-75
2021/05/23 09:35:29;;;;;;;2.27;0.80;;;;;;;8.00;78.89;96369.88;5060257;28;20020;-75
2021/05/23 09:38:06;;;;;;;5.87;1.73;;;;;;;8.16;79.53;96370.13;5045487;28;20114;-75
2021/05/23 09:40:40;;;;;;;5.17;2.07;;;;;;;8.73;77.86;96365.69;5048078;28;20029;-75
2021/05/23 09:43:08;;;;;;;3.57;1.10;;;;;;;9.23;77.81;96366.28;5044697;28;20048;-76
2021/05/23 09:45:45;;;;;;;2.30;0.70;;;;;;;10.61;69.76;96359.56;5059022;28;20028;-77
2021/05/23 09:48:20;;;;;;;2.03;0.97;;;;;;;11.59;70.37;96352.97;5071987;28;20045;-77
2021/05/23 09:50:49;;;;;;;5.63;1.20;;;;;;;12.21;67.78;96354.19;5055982;28;20141;-77
2021/05/23 09:53:29;;;;;;;4.43;0.93;;;;;;;13.34;67.94;96350.53;5066657;28;20363;-77
2021/05/23 09:56:05;;;;;;;4.50;0.73;;;;;;;12.71;63.64;96352.28;5059410;28;20028;-77
2021/05/23 09:58:39;;;;;;;3.17;0.80;;;;;;;12.95;66.00;96352.19;5070718;28;20032;-77
2021/05/23 10:01:06;;;;;;;2.90;0.57;;;;;;;13.88;65.12;96346.09;5053767;28;20043;-77
2021/05/23 10:03:34;;;;;;;1.40;0.47;;;;;;;14.84;64.09;96352.47;5050700;28;20056;-77
2021/05/23 10:06:00;;;;;;;2.53;0.60;;;;;;;15.00;60.46;96342.69;5079854;28;20052;-77
2021/05/23 10:08:28;;;;;;;2.70;0.83;;;;;;;15.56;61.50;96341.13;5054544;28;20024;-77
2021/05/23 10:11:00;;;;;;;1.87;0.83;;;;;;;16.12;56.99;96329.03;5060368;28;20032;-77
2021/05/23 10:13:27;;;;;;;2.53;0.73;;;;;;;16.98;57.78;96336.78;5077026;28;20024;-78
2021/05/23 10:15:54;;;;;;;3.20;0.80;;;;;;;16.75;57.78;96329.09;5052697;28;20051;-78
2021/05/23 10:18:25;;;;;;;2.03;0.60;;;;;;;16.90;57.87;96327.97;5047711;28;20098;-78
2021/05/23 10:20:58;;;;;;;3.80;1.37;;;;;;;16.98;53.67;96321.66;5048503;28;20029;-78
2021/05/23 10:23:30;;;;;;;3.60;0.87;;;;;;;17.29;55.46;96323.00;5060072;28;20036;-77
2021/05/23 10:26:00;;;;;;;3.27;0.70;;;;;;;17.07;51.79;96314.31;5052621;28;20087;-77
2021/05/23 10:28:28;;;;;;;2.20;0.50;;;;;;;16.71;54.48;96321.50;5063682;28;20093;-78
2021/05/23 10:30:55;;;;;;;3.73;0.43;;;;;;;16.56;53.14;96322.59;5065141;28;20475;-78
2021/05/23 10:33:23;;;;;;;3.97;0.70;;;;;;;16.20;52.21;96319.09;5053613;28;20706;-78
2021/05/23 10:35:51;;;;;;;3.23;1.53;;;;;;;16.45;53.58;96314.16;5048078;28;20033;-78
2021/05/23 10:38:20;;;;;;;1.87;0.80;;;;;;;16.03;52.24;96325.69;5045222;28;20035;-78
2021/05/23 10:41:01;;;;;;;5.23;1.27;;;;;;;16.65;51.81;96327.56;5044963;28;20029;-78
2021/05/23 10:43:29;;;;;;;1.03;0.70;;;;;;;17.18;51.17;96319.09;5041421;28;20083;-78
2021/05/23 10:46:10;;;;;;;1.40;0.60;;;;;;;18.18;50.23;96311.34;5049320;28;20536;-78
2021/05/23 10:48:57;;;;;;;1.80;0.65;;;;;;;16.77;50.07;96324.38;5050222;28;20115;-78
2021/05/23 10:51:29;;;;;;;2.00;0.47;;;;;;;15.64;51.14;96334.88;5068698;28;20948;-78
2021/05/23 10:53:55;;;;;;;2.03;0.80;;;;;;;14.41;55.13;96342.63;5052139;28;20091;-78
2021/05/23 10:56:22;;;;;;;1.97;0.63;;;;;;;14.35;59.04;96350.31;5066983;28;20024;-78
2021/05/23 10:59:02;;;;;;;3.10;0.57;;;;;;;13.26;64.29;96354.06;5050011;28;20032;-77
2021/05/23 11:01:52;;;;;;;2.43;0.90;;;;;;;13.50;69.30;96365.50;5052279;28;20036;-77
2021/05/23 11:04:22;;;;;;;2.87;0.70;;;;;;;13.13;66.57;96365.16;5050214;28;20410;-77
2021/05/23 11:07:10;;;;;;;2.70;0.70;;;;;;;12.95;68.68;96369.84;5064204;28;20032;-76
2021/05/23 11:09:36;;;;;;;1.13;0.57;;;;;;;12.95;70.18;96383.03;5077932;28;20792;-77
2021/05/23 11:12:07;;;;;;;2.70;0.70;;;;;;;12.17;68.84;96381.03;5076913;28;20107;-76
2021/05/23 11:14:35;;;;;;;1.23;0.50;;;;;;;11.46;70.21;96399.03;5053690;28;20029;-76
2021/05/23 11:17:01;;;;;;;1.13;0.43;;;;;;;11.64;71.88;96400.75;5074873;28;20119;-77
2021/05/23 11:19:31;;;;;;;5.17;0.90;;;;;;;11.81;71.87;96394.50;5058901;28;20111;-76
2021/05/23 11:22:04;;;;;;;1.03;0.40;;;;;;;11.74;70.94;96406.69;5051894;28;20090;-75
2021/05/23 11:24:35;;;;;;;6.82;3.80;;;;;;;11.93;70.09;96398.47;5075484;28;20089;-76
2021/05/23 11:27:16;;;;;;;0.90;0.37;;;;;;;12.16;69.61;96389.94;5069797;28;20028;-75
2021/05/23 11:29:49;;;;;;;4.90;0.53;;;;;;;13.30;66.02;96380.94;5074129;28;20127;-76
2021/05/23 11:32:16;;;;;;;3.88;0.65;;;;;;;13.61;67.60;96383.59;5075824;28;20036;-76
2021/05/23 11:34:46;;;;;;;2.77;0.70;;;;;;;13.53;67.38;96381.00;5062064;28;20024;-76
2021/05/23 11:37:12;;;;;;;3.53;1.07;;;;;;;13.84;67.97;96373.84;5057132;28;20044;-76
2021/05/23 11:39:39;;;;;;;1.73;0.70;;;;;;;15.48;63.42;96365.06;5061129;28;20658;-76
2021/05/23 11:42:06;;;;;;;1.73;0.50;;;;;;;15.60;61.79;96365.44;5075001;28;20443;-76
2021/05/23 11:44:42;;;;;;;7.27;3.70;;;;;;;16.26;57.76;96358.16;5069668;28;20111;-76
2021/05/23 11:47:08;;;;;;;5.70;2.60;;;;;;;16.87;57.65;96351.44;5052525;28;20041;-77
2021/05/23 11:49:37;;;;;;;2.10;0.40;;;;;;;17.27;55.13;96347.16;5056450;28;20066;-77